メインページ
METAR-TAF:

METAR-TAF

空港 :

マウント・プレザント空軍基地

スタンリー, フォークランド諸島

緯度: 51-49S, 経度: 058-27W, 海抜: 74m

現時点の気象観測

当レポートは35分前の20:50(UTC)に作成
西の風 18kt
気温 8°C
湿度 81%
気圧 992 hPa
視程10km以上
1,500メートル以下は雲なし、積乱雲なし

METAR: EGYP 162050Z 28018KT CAVOK 08/05 Q0992 BLU NOSIG

時間: 18:25 (21:25 UTC)

予報

当レポートは2時間2分前の19:23(UTC)に作成
予報は16日の 21時(UTC)から 17日の 15時(UTC)まで有効
西の風 17kt、最大28ktの突風を伴う
視程10km以上
高度1200ftの雲はほとんどない
16日の 21時(UTC)から 16日の 23時(UTC)まで徐々に
西/南西の風 12kt
確率 40% :
16日の 21時(UTC)から 17日の 04時(UTC)まで一時的に
高度1200ftの雲は散在している
確率 40% :
17日の 06時(UTC)から 17日の 10時(UTC)まで一時的に
視程: 2000m
高度400ftの雲は散在している
確率 30% :
17日の 06時(UTC)から 17日の 10時(UTC)まで一時的に
視程: 0500m
17日の 10時(UTC)から 17日の 12時(UTC)まで徐々に
の風 17kt、最大27ktの突風を伴う
確率 40% :
17日の 12時(UTC)から 17日の 15時(UTC)まで一時的に
の風 27kt、最大43ktの突風を伴う
確率 30% :
17日の 12時(UTC)から 17日の 15時(UTC)まで一時的に
変向風 4kt
高度600ftの雲は散在している

TAF: EGYP 161923Z 1621/1715 28017G28KT 9999 FEW012 BECMG 1621/1623 25012KT PROB40 TEMPO 1621/1704 SCT012 PROB40 TEMPO 1706/1710 2000 BR SCT004 PROB30 TEMPO 1706/1710 0500 FG VV/// BECMG 1710/1712 01017G27KT 520003 PROB40 TEMPO 1712/1715 01027G43KT 530003 PROB30 TEMPO 1712/1715 VRB04KT SCT006 560003

4,000以上の空港の気象観測と天気予報(METAR報とTAF報)

利用可能な観測所は地図上に黄色い丸と赤い丸で示す。

丸の上にカーソルを重ねると観測所名を参照できる。

次にクリックすると気象観測と天気予報を参照できる。

マップの切り替え:黒色「×」印の緑ボタンをクリックして拡大、「-」印の緑ボタンをクリックして縮小、緑色の三角印をクリックして隣りの地図に切り替え


METAR-TAF: